Time;durP1;ratioP1;P1;durP2;ratioP2;P2;SDS_P1;SDS_P2;PMS_P1;PMS_P2;Temp;Humidity;BMP_temperature;BMP_pressure;BME280_temperature;BME280_humidity;BME280_pressure;Samples;Min_cycle;Max_cycle;Signal;HPM_P1;HPM_P2
2021/03/22 00:02:07;;;;;;;1.50;1.45;;;;;;;1.99;100.00;101026.84;4987621;28;20528;-75
2021/03/22 00:05:11;;;;;;;4.70;2.30;;;;;;;2.10;100.00;101033.16;4987090;28;20069;-75
2021/03/22 00:08:17;;;;;;;4.00;2.08;;;;;;;2.22;100.00;101025.34;4987412;28;20057;-75
2021/03/22 00:11:21;;;;;;;2.90;1.52;;;;;;;2.25;100.00;101013.53;4986999;28;20065;-75
2021/03/22 00:14:24;;;;;;;2.70;2.15;;;;;;;2.27;100.00;101004.94;4987827;28;20084;-75
2021/03/22 00:17:28;;;;;;;2.22;2.03;;;;;;;2.34;100.00;101009.66;4989737;28;20049;-75
2021/03/22 00:20:32;;;;;;;5.60;2.40;;;;;;;2.39;100.00;101011.97;4990317;28;20057;-75
2021/03/22 00:23:36;;;;;;;3.50;1.55;;;;;;;2.43;100.00;100997.06;4990398;28;20421;-75
2021/03/22 00:26:39;;;;;;;2.88;1.98;;;;;;;2.53;100.00;101004.53;5003421;28;20065;-75
2021/03/22 00:29:43;;;;;;;1.92;1.77;;;;;;;2.60;100.00;100999.03;5013924;28;20081;-75
2021/03/22 00:32:47;;;;;;;0.80;0.80;;;;;;;2.69;100.00;100999.41;5013797;28;20056;-76
2021/03/22 00:35:51;;;;;;;4.00;1.83;;;;;;;2.75;100.00;100995.09;5013650;28;20542;-73
2021/03/22 00:38:55;;;;;;;4.95;1.77;;;;;;;2.81;100.00;101000.97;5013886;28;20064;-74
2021/03/22 00:41:58;;;;;;;4.93;1.80;;;;;;;2.85;100.00;101002.56;5013824;28;20061;-75
2021/03/22 00:45:04;;;;;;;18.45;2.53;;;;;;;2.94;100.00;100999.41;5013918;28;20053;-75
2021/03/22 00:48:09;;;;;;;3.08;1.20;;;;;;;3.01;100.00;100993.88;5013747;28;20061;-75
2021/03/22 00:51:13;;;;;;;0.77;0.77;;;;;;;3.08;100.00;100994.63;5012736;28;20098;-73
2021/03/22 00:54:17;;;;;;;5.00;1.65;;;;;;;3.14;100.00;100994.25;5013055;28;20065;-73
2021/03/22 00:57:20;;;;;;;2.75;1.98;;;;;;;3.21;100.00;100985.94;5012828;28;20057;-73
2021/03/22 01:00:44;;;;;;;4.47;1.40;;;;;;;3.31;100.00;100987.91;5013622;28;20061;-74
2021/03/22 01:03:48;;;;;;;3.53;2.10;;;;;;;3.39;100.00;100981.19;5005782;28;20081;-74
2021/03/22 01:06:52;;;;;;;2.00;1.63;;;;;;;3.44;100.00;100983.53;5013258;28;20057;-73
2021/03/22 01:09:55;;;;;;;7.68;2.50;;;;;;;3.50;100.00;100977.19;5013173;28;20057;-72
2021/03/22 01:12:59;;;;;;;1.00;1.00;;;;;;;3.54;100.00;100982.69;5013147;28;20080;-72
2021/03/22 01:16:04;;;;;;;5.68;1.20;;;;;;;3.61;100.00;100982.66;5007428;28;20085;-74
2021/03/22 01:19:14;;;;;;;2.28;1.45;;;;;;;3.66;100.00;100974.00;5008467;28;20523;-73
2021/03/22 01:22:18;;;;;;;2.15;1.42;;;;;;;3.69;100.00;100970.41;5012645;28;20404;-73
2021/03/22 01:25:22;;;;;;;2.13;1.48;;;;;;;3.71;100.00;100966.06;5012644;28;20061;-72
2021/03/22 01:28:25;;;;;;;2.65;1.92;;;;;;;3.75;100.00;100966.03;4993307;28;20081;-73
2021/03/22 01:31:29;;;;;;;1.70;0.85;;;;;;;3.80;100.00;100962.88;4993048;28;20069;-75
2021/03/22 01:34:33;;;;;;;0.88;0.85;;;;;;;3.85;100.00;100954.19;4993327;28;20069;-75
2021/03/22 01:37:36;;;;;;;4.93;1.38;;;;;;;3.87;100.00;100957.34;4992162;28;20073;-74
2021/03/22 01:41:01;;;;;;;1.73;0.60;;;;;;;3.88;100.00;100950.63;4993022;28;20122;-75
2021/03/22 01:44:28;;;;;;;1.48;1.20;;;;;;;3.90;100.00;100951.00;4992835;28;20068;-75
2021/03/22 01:47:34;;;;;;;2.88;1.17;;;;;;;3.94;100.00;100957.28;4992428;28;20408;-75
2021/03/22 01:50:37;;;;;;;1.08;1.08;;;;;;;3.95;100.00;100949.78;4992535;28;20543;-75
2021/03/22 01:53:41;;;;;;;1.38;1.05;;;;;;;3.97;100.00;100945.44;4992930;28;20456;-75
2021/03/22 01:56:54;;;;;;;1.75;1.65;;;;;;;3.98;100.00;100951.75;4992393;28;20065;-75
2021/03/22 02:00:04;;;;;;;1.45;1.35;;;;;;;3.96;100.00;100946.66;4992985;28;20061;-75
2021/03/22 02:03:15;;;;;;;1.27;1.02;;;;;;;3.97;100.00;100950.16;4992511;28;20058;-75
2021/03/22 02:06:19;;;;;;;10.83;1.73;;;;;;;4.00;100.00;100939.13;4992455;28;20073;-75
2021/03/22 02:09:22;;;;;;;6.57;1.20;;;;;;;4.01;100.00;100935.19;4992774;28;20057;-75
2021/03/22 02:12:26;;;;;;;19.95;2.45;;;;;;;4.04;100.00;100939.88;4992379;28;20065;-75
2021/03/22 02:15:30;;;;;;;3.88;1.27;;;;;;;4.04;100.00;100934.38;4992521;28;20065;-75
2021/03/22 02:18:48;;;;;;;1.63;1.17;;;;;;;4.07;100.00;100935.53;4992441;28;20433;-74
2021/03/22 02:21:58;;;;;;;0.88;0.82;;;;;;;4.05;100.00;100932.41;4992171;28;20069;-75
2021/03/22 02:25:20;;;;;;;1.48;0.98;;;;;;;4.03;100.00;100941.06;4992359;28;20065;-76
2021/03/22 02:28:51;;;;;;;0.88;0.88;;;;;;;4.03;100.00;100926.53;4990884;28;20073;-75
2021/03/22 02:32:17;;;;;;;20.40;3.22;;;;;;;4.05;100.00;100924.91;4991958;28;20069;-73
2021/03/22 02:35:41;;;;;;;6.53;0.93;;;;;;;4.08;100.00;100931.59;4991580;28;20523;-75
2021/03/22 02:38:58;;;;;;;1.65;1.15;;;;;;;4.11;100.00;100931.56;4991844;28;20061;-75
2021/03/22 02:42:06;;;;;;;5.70;1.20;;;;;;;4.10;100.00;100916.22;4985928;28;20497;-76
2021/03/22 02:45:10;;;;;;;1.73;0.93;;;;;;;4.13;100.00;100920.94;4972272;28;20066;-75
2021/03/22 02:48:19;;;;;;;3.05;0.82;;;;;;;4.17;100.00;100924.44;4971264;28;20062;-75
2021/03/22 02:51:57;;;;;;;0.80;0.80;;;;;;;4.16;100.00;100931.13;4971580;28;20062;-75
2021/03/22 02:55:11;;;;;;;1.25;1.17;;;;;;;4.20;100.00;100931.13;4982864;28;20061;-74
2021/03/22 02:58:18;;;;;;;2.17;1.25;;;;;;;4.21;100.00;100916.13;4970503;28;20066;-75
2021/03/22 03:01:39;;;;;;;0.90;0.90;;;;;;;4.22;100.00;100923.97;4980021;28;20073;-75
2021/03/22 03:04:44;;;;;;;2.37;1.20;;;;;;;4.25;100.00;100911.34;4979872;28;20117;-75
2021/03/22 03:07:48;;;;;;;7.10;1.55;;;;;;;4.26;100.00;100913.72;4979698;28;20308;-75
2021/03/22 03:10:51;;;;;;;2.17;1.35;;;;;;;4.26;100.00;100919.25;4979682;28;20118;-75
2021/03/22 03:13:54;;;;;;;0.45;0.43;;;;;;;4.24;100.00;100913.34;4979892;28;20062;-74
2021/03/22 03:16:58;;;;;;;0.68;0.63;;;;;;;4.28;100.00;100905.84;4979930;28;20062;-74
2021/03/22 03:20:05;;;;;;;1.42;1.33;;;;;;;4.29;100.00;100903.84;4971313;28;20062;-75
2021/03/22 03:23:08;;;;;;;1.38;1.10;;;;;;;4.31;100.00;100905.00;4970173;28;20436;-75
2021/03/22 03:26:12;;;;;;;2.80;0.98;;;;;;;4.32;100.00;100901.06;4976134;28;20065;-75
2021/03/22 03:29:15;;;;;;;0.65;0.65;;;;;;;4.33;100.00;100890.84;4988839;28;20073;-75
2021/03/22 03:32:20;;;;;;;2.08;1.00;;;;;;;4.36;100.00;100896.31;4987977;28;20113;-75
2021/03/22 03:35:27;;;;;;;4.05;1.42;;;;;;;4.39;100.00;100889.19;4988721;28;20073;-75
2021/03/22 03:38:30;;;;;;;1.38;0.60;;;;;;;4.39;100.00;100898.25;4988515;28;20085;-75
2021/03/22 03:41:38;;;;;;;1.10;0.68;;;;;;;4.39;100.00;100889.19;4988539;28;20058;-75
2021/03/22 03:44:42;;;;;;;1.25;1.15;;;;;;;4.40;100.00;100890.75;4989203;28;20065;-73
2021/03/22 03:47:45;;;;;;;4.72;0.80;;;;;;;4.44;100.00;100884.00;4990671;28;20392;-73
2021/03/22 03:50:53;;;;;;;2.15;1.02;;;;;;;4.46;100.00;100883.63;4990475;28;20057;-74
2021/03/22 03:53:57;;;;;;;0.68;0.43;;;;;;;4.47;100.00;100888.72;4990637;28;20057;-73
2021/03/22 03:57:01;;;;;;;4.93;1.25;;;;;;;4.50;100.00;100881.59;4990807;28;20058;-74
2021/03/22 04:00:10;;;;;;;1.48;0.95;;;;;;;4.53;100.00;100892.59;4990387;28;20412;-73
2021/03/22 04:03:14;;;;;;;8.73;1.52;;;;;;;4.53;100.00;100889.03;4990756;28;20416;-73
2021/03/22 04:06:21;;;;;;;1.80;0.98;;;;;;;4.54;100.00;100890.63;4988554;28;20065;-74
2021/03/22 04:09:25;;;;;;;1.05;0.80;;;;;;;4.52;100.00;100885.53;4990420;28;20078;-75
2021/03/22 04:12:29;;;;;;;2.75;0.85;;;;;;;4.52;100.00;100888.28;4990362;28;20061;-73
2021/03/22 04:15:32;;;;;;;5.03;1.55;;;;;;;4.53;100.00;100878.78;4990321;28;20412;-75
2021/03/22 04:18:38;;;;;;;0.63;0.63;;;;;;;4.58;100.00;100875.59;4990693;28;20505;-75
2021/03/22 04:21:44;;;;;;;1.95;1.13;;;;;;;4.58;100.00;100886.63;4990631;28;20069;-75
2021/03/22 04:24:47;;;;;;;3.42;1.02;;;;;;;4.58;100.00;100880.34;4990084;28;20050;-75
2021/03/22 04:27:51;;;;;;;1.27;0.73;;;;;;;4.57;100.00;100885.06;4971103;28;20510;-75
2021/03/22 04:30:55;;;;;;;2.70;1.02;;;;;;;4.58;100.00;100886.63;4979159;28;20061;-75
2021/03/22 04:34:00;;;;;;;3.40;0.88;;;;;;;4.59;100.00;100877.16;4979088;28;20066;-74
2021/03/22 04:37:03;;;;;;;0.68;0.68;;;;;;;4.63;100.00;100888.16;4970766;28;20069;-74
2021/03/22 04:40:08;;;;;;;1.75;0.90;;;;;;;4.65;100.00;100873.97;4970862;28;20520;-75
2021/03/22 04:43:13;;;;;;;4.00;0.90;;;;;;;4.65;100.00;100887.75;4978901;28;20062;-74
2021/03/22 04:46:17;;;;;;;0.57;0.57;;;;;;;4.65;100.00;100871.19;4970742;28;20527;-74
2021/03/22 04:49:21;;;;;;;2.90;0.70;;;;;;;4.65;100.00;100868.44;4971447;28;20113;-74
2021/03/22 04:52:24;;;;;;;1.27;0.80;;;;;;;4.65;100.00;100866.47;4970582;28;20536;-74
2021/03/22 04:55:30;;;;;;;0.63;0.38;;;;;;;4.67;100.00;100866.06;4970805;28;20418;-75
2021/03/22 04:58:38;;;;;;;3.58;1.02;;;;;;;4.69;100.00;100866.41;4970955;28;20066;-73
2021/03/22 05:01:41;;;;;;;5.50;1.05;;;;;;;4.69;100.00;100860.91;4969897;28;20066;-74
2021/03/22 05:04:46;;;;;;;0.88;0.73;;;;;;;4.70;100.00;100859.72;4978312;28;20062;-75
2021/03/22 05:07:50;;;;;;;1.50;0.55;;;;;;;4.73;100.00;100853.38;4978422;28;20062;-74
2021/03/22 05:10:58;;;;;;;0.63;0.50;;;;;;;4.75;100.00;100851.75;4977614;28;20065;-74
2021/03/22 05:14:01;;;;;;;1.50;0.47;;;;;;;4.75;100.00;100856.50;4981941;28;20062;-74
2021/03/22 05:17:05;;;;;;;1.42;1.25;;;;;;;4.74;100.00;100854.94;4982109;28;20070;-75
2021/03/22 05:20:17;;;;;;;3.08;1.05;;;;;;;4.75;100.00;100856.50;4974180;28;20065;-74
2021/03/22 05:23:23;;;;;;;3.53;0.85;;;;;;;4.75;100.00;100856.50;4973378;28;20077;-75
2021/03/22 05:26:27;;;;;;;2.53;1.77;;;;;;;4.76;100.00;100858.06;4982226;28;20077;-74
2021/03/22 05:29:31;;;;;;;2.80;1.13;;;;;;;4.77;100.00;100865.13;4993329;28;20065;-75
2021/03/22 05:32:36;;;;;;;3.45;0.57;;;;;;;4.76;100.00;100858.06;4992992;28;20053;-74
2021/03/22 05:35:41;;;;;;;2.20;0.85;;;;;;;4.76;100.00;100858.06;4993089;28;20065;-75
2021/03/22 05:38:44;;;;;;;11.48;1.50;;;;;;;4.73;100.00;100847.84;4992920;28;20080;-75
2021/03/22 05:42:03;;;;;;;0.77;0.77;;;;;;;4.71;100.00;100855.75;4992939;28;20065;-74
2021/03/22 05:45:31;;;;;;;2.20;1.05;;;;;;;4.72;100.00;100849.06;4992689;28;20062;-75
2021/03/22 05:49:03;;;;;;;4.50;1.77;;;;;;;4.73;100.00;100859.66;5009951;28;20065;-75
2021/03/22 05:52:20;;;;;;;2.75;1.38;;;;;;;4.75;100.00;100856.50;5012121;28;20065;-74
2021/03/22 05:55:32;;;;;;;1.13;0.93;;;;;;;4.76;100.00;100860.84;5011829;28;20093;-75
2021/03/22 05:58:46;;;;;;;1.05;0.80;;;;;;;4.75;100.00;100862.00;5012704;28;20061;-74
2021/03/22 06:01:56;;;;;;;4.75;0.82;;;;;;;4.76;100.00;100863.59;5005084;28;20066;-73
2021/03/22 06:05:22;;;;;;;1.50;1.40;;;;;;;4.77;100.00;100865.13;5012159;28;20432;-74
2021/03/22 06:08:41;;;;;;;3.88;1.02;;;;;;;4.78;100.00;100864.75;5009162;28;20098;-74
2021/03/22 06:11:58;;;;;;;1.95;1.02;;;;;;;4.80;100.00;100875.38;5011957;28;20400;-74
2021/03/22 06:15:26;;;;;;;2.53;1.00;;;;;;;4.80;100.00;100869.84;5011610;28;20056;-74
2021/03/22 06:18:40;;;;;;;1.60;1.38;;;;;;;4.79;100.00;100877.34;5011377;28;20065;-74
2021/03/22 06:21:46;;;;;;;1.58;1.02;;;;;;;4.81;100.00;100871.44;5011620;28;20065;-74
2021/03/22 06:24:52;;;;;;;2.05;1.00;;;;;;;4.83;100.00;100869.03;5011532;28;20069;-74
2021/03/22 06:28:02;;;;;;;1.65;0.80;;;;;;;4.81;100.00;100872.19;4991211;28;20416;-74
2021/03/22 06:31:09;;;;;;;2.63;0.73;;;;;;;4.82;100.00;100872.97;4992764;28;20061;-74
2021/03/22 06:34:17;;;;;;;3.97;1.45;;;;;;;4.82;100.00;100864.69;4992095;28;20062;-74
2021/03/22 06:37:34;;;;;;;9.63;2.15;;;;;;;4.83;100.00;100863.53;4991537;28;20073;-74
2021/03/22 06:40:38;;;;;;;8.70;1.23;;;;;;;4.82;100.00;100872.97;4992195;28;20066;-74
2021/03/22 06:43:51;;;;;;;2.58;1.25;;;;;;;4.83;100.00;100869.78;4991853;28;20061;-74
2021/03/22 06:47:02;;;;;;;4.47;1.73;;;;;;;4.84;100.00;100862.31;4991806;28;20061;-74
2021/03/22 06:50:30;;;;;;;4.72;1.80;;;;;;;4.84;100.00;100865.06;4990903;28;20049;-74
2021/03/22 06:53:33;;;;;;;1.75;1.48;;;;;;;4.83;100.00;100872.56;4990966;28;20062;-74
2021/03/22 06:56:38;;;;;;;7.55;2.03;;;;;;;4.85;100.00;100883.19;4991697;28;20069;-74
2021/03/22 07:00:24;;;;;;;11.65;2.28;;;;;;;4.89;100.00;100875.66;4991794;28;20065;-74
2021/03/22 07:03:27;;;;;;;6.20;2.17;;;;;;;4.90;100.00;100879.97;4991149;28;20158;-75
2021/03/22 07:06:31;;;;;;;3.42;1.40;;;;;;;4.90;100.00;100880.75;4989163;28;20061;-77
2021/03/22 07:09:38;;;;;;;2.05;1.40;;;;;;;4.93;100.00;100870.88;4991700;28;20057;-74
2021/03/22 07:12:42;;;;;;;2.58;0.98;;;;;;;4.94;100.00;100878.75;4991610;28;20077;-74
2021/03/22 07:15:47;;;;;;;1.20;1.05;;;;;;;4.98;100.00;100884.25;4991076;28;20057;-75
2021/03/22 07:19:12;;;;;;;1.35;1.35;;;;;;;5.00;100.00;100879.09;4990650;28;20061;-75
2021/03/22 07:22:21;;;;;;;1.15;0.65;;;;;;;5.02;100.00;100879.44;4991117;28;20066;-75
2021/03/22 07:25:38;;;;;;;3.95;2.03;;;;;;;5.05;100.00;100881.38;4990465;28;20081;-75
2021/03/22 07:29:04;;;;;;;2.58;1.60;;;;;;;5.07;100.00;100878.97;4991365;28;20069;-75
2021/03/22 07:32:47;;;;;;;7.50;2.00;;;;;;;5.08;100.00;100881.34;4991510;28;20065;-75
2021/03/22 07:36:03;;;;;;;3.28;0.63;;;;;;;5.11;100.00;100885.25;4988266;28;20069;-75
2021/03/22 07:39:12;;;;;;;2.58;0.60;;;;;;;5.11;100.00;100869.44;4990783;28;20065;-74
2021/03/22 07:42:25;;;;;;;3.97;0.98;;;;;;;5.09;100.00;100857.28;4990792;28;20061;-75
2021/03/22 07:45:47;;;;;;;4.18;1.40;;;;;;;5.08;100.00;100858.47;4990878;28;20064;-75
2021/03/22 07:48:50;;;;;;;5.40;2.17;;;;;;;5.11;100.00;100860.41;4990752;28;20428;-75
2021/03/22 07:52:19;;;;;;;6.50;1.80;;;;;;;5.14;100.00;100856.81;4990160;28;20061;-75
2021/03/22 07:55:33;;;;;;;2.05;1.02;;;;;;;5.21;100.00;100853.97;4989973;28;20057;-75
2021/03/22 07:58:57;;;;;;;4.72;1.67;;;;;;;5.23;100.00;100859.84;4990849;28;21492;-74
2021/03/22 08:02:22;;;;;;;2.78;1.58;;;;;;;5.23;100.00;100851.56;4990963;28;20057;-75
2021/03/22 08:05:39;;;;;;;4.57;1.67;;;;;;;5.22;100.00;100863.78;4989109;28;20073;-75
2021/03/22 08:09:08;;;;;;;6.93;0.75;;;;;;;5.24;100.00;100861.44;4990409;28;20073;-75
2021/03/22 08:12:23;;;;;;;3.05;1.33;;;;;;;5.31;100.00;100867.63;4990599;28;20058;-75
2021/03/22 08:15:52;;;;;;;2.97;1.50;;;;;;;5.31;100.00;100873.16;4990364;28;20073;-75
2021/03/22 08:19:03;;;;;;;7.30;1.25;;;;;;;5.35;100.00;100879.41;4990351;28;20066;-74
2021/03/22 08:22:41;;;;;;;0.67;0.67;;;;;;;5.40;100.00;100880.91;4990459;28;20070;-75
2021/03/22 08:25:52;;;;;;;5.35;2.20;;;;;;;5.44;100.00;100881.66;4991651;28;20069;-75
2021/03/22 08:29:05;;;;;;;2.65;1.05;;;;;;;5.49;100.00;100883.97;5010144;28;20068;-75
2021/03/22 08:32:36;;;;;;;3.28;1.20;;;;;;;5.52;100.00;100891.44;5010566;28;20061;-75
2021/03/22 08:35:48;;;;;;;3.53;1.90;;;;;;;5.54;100.00;100880.75;5009518;28;20061;-74
2021/03/22 08:39:23;;;;;;;6.68;2.72;;;;;;;5.59;100.00;100880.25;5009980;28;20069;-75
2021/03/22 08:42:41;;;;;;;1.92;1.17;;;;;;;5.66;100.00;100877.38;5008138;28;20061;-74
2021/03/22 08:46:22;;;;;;;4.95;1.55;;;;;;;5.67;100.00;100878.19;5010525;28;20069;-74
2021/03/22 08:49:41;;;;;;;3.85;1.55;;;;;;;5.64;100.00;100874.25;5013150;28;20065;-75
2021/03/22 08:52:54;;;;;;;5.80;1.73;;;;;;;5.66;100.00;100877.38;5013311;28;20065;-75
2021/03/22 08:56:01;;;;;;;9.82;2.38;;;;;;;5.74;100.00;100886.38;5013284;28;20065;-75
2021/03/22 08:59:19;;;;;;;3.10;1.88;;;;;;;5.78;100.00;100885.09;5013600;28;20061;-75
2021/03/22 09:02:25;;;;;;;4.38;1.95;;;;;;;5.83;100.00;100887.41;5013155;28;20060;-75
2021/03/22 09:05:32;;;;;;;7.38;2.90;;;;;;;5.94;100.00;100892.78;5013242;28;20423;-75
2021/03/22 09:08:42;;;;;;;4.85;1.52;;;;;;;6.09;100.00;100888.59;5013271;28;20420;-75
2021/03/22 09:11:48;;;;;;;5.70;2.33;;;;;;;6.28;100.00;100893.41;5013225;28;20093;-75
2021/03/22 09:14:53;;;;;;;2.45;1.50;;;;;;;6.38;100.00;100884.16;5013311;28;20065;-74
2021/03/22 09:18:09;;;;;;;1.88;0.93;;;;;;;6.52;100.00;100883.13;5015199;28;20432;-75
2021/03/22 09:21:22;;;;;;;4.40;1.13;;;;;;;6.64;100.00;100888.84;5009005;28;20061;-74
2021/03/22 09:24:40;;;;;;;4.47;1.70;;;;;;;6.78;100.00;100885.00;5011184;28;20137;-75
2021/03/22 09:27:44;;;;;;;8.65;1.63;;;;;;;6.88;100.00;100884.03;5010540;28;20064;-75
2021/03/22 09:30:58;;;;;;;2.22;1.48;;;;;;;6.97;100.00;100875.94;5012935;28;20061;-75
2021/03/22 09:34:31;;;;;;;5.43;1.65;;;;;;;7.05;100.00;100874.59;5012447;28;20451;-75
2021/03/22 09:37:52;;;;;;;4.45;1.73;;;;;;;7.23;100.00;100877.78;5011565;28;20068;-74
2021/03/22 09:40:58;;;;;;;1.85;0.95;;;;;;;7.39;100.00;100871.47;5011987;28;20065;-74
2021/03/22 09:44:12;;;;;;;2.85;0.95;;;;;;;7.58;100.00;100876.97;5012394;28;20053;-75
2021/03/22 09:47:27;;;;;;;2.53;1.23;;;;;;;7.71;100.00;100865.25;5013109;28;20061;-75
2021/03/22 09:50:34;;;;;;;5.55;1.38;;;;;;;7.88;100.00;100850.16;5011194;28;20073;-76
2021/03/22 09:53:50;;;;;;;2.90;1.60;;;;;;;8.02;100.00;100860.91;5012809;28;20072;-75
2021/03/22 09:57:22;;;;;;;3.92;1.80;;;;;;;8.17;100.00;100874.00;5011924;28;20145;-74
2021/03/22 10:00:25;;;;;;;;;;;;;;;8.27;100.00;100861.88;5012280;28;20081;-75
2021/03/22 10:03:35;;;;;;;9.75;0.52;;;;;;;8.38;100.00;100869.94;5012484;28;19922;-74
2021/03/22 10:06:41;;;;;;;1.83;0.85;;;;;;;8.34;100.00;100870.03;5011899;28;20081;-74
2021/03/22 10:09:50;;;;;;;1.77;0.50;;;;;;;8.40;100.00;100865.50;5012240;28;20060;-75
2021/03/22 10:13:00;;;;;;;1.35;1.02;;;;;;;8.54;100.00;100875.47;5011170;28;20065;-75
2021/03/22 10:16:03;;;;;;;1.98;1.00;;;;;;;8.69;100.00;100882.19;5012612;28;20085;-74
2021/03/22 10:19:26;;;;;;;2.67;0.60;;;;;;;8.80;100.00;100882.69;5011993;28;20408;-75
2021/03/22 10:22:31;;;;;;;3.30;1.38;;;;;;;8.93;100.00;100879.94;5011170;28;20065;-75
2021/03/22 10:25:41;;;;;;;6.20;1.27;;;;;;;8.92;100.00;100876.38;5011777;28;20511;-76
2021/03/22 10:28:45;;;;;;;1.95;1.48;;;;;;;9.00;100.00;100875.00;5011556;28;20420;-75
2021/03/22 10:32:13;;;;;;;5.05;0.93;;;;;;;9.08;100.00;100876.34;5011989;28;20065;-75
2021/03/22 10:35:19;;;;;;;6.82;1.13;;;;;;;9.08;100.00;100876.34;5011826;28;20061;-73
2021/03/22 10:38:34;;;;;;;1.05;0.70;;;;;;;9.24;100.00;100874.72;5010780;28;20099;-75
2021/03/22 10:41:42;;;;;;;7.72;1.73;;;;;;;9.33;100.00;100875.63;5011717;28;20065;-75
2021/03/22 10:44:45;;;;;;;2.50;1.45;;;;;;;9.40;100.00;100871.84;5011030;28;20057;-75
2021/03/22 10:47:50;;;;;;;2.47;1.05;;;;;;;9.57;100.00;100884.44;5012245;28;20064;-76
2021/03/22 10:51:04;;;;;;;1.20;0.65;;;;;;;9.63;100.00;100874.31;5010803;28;20112;-73
2021/03/22 10:54:12;;;;;;;3.15;1.00;;;;;;;9.61;100.00;100869.22;5011434;28;20065;-75
2021/03/22 10:57:23;;;;;;;1.35;0.88;;;;;;;9.72;100.00;100871.66;5010500;28;20065;-75
2021/03/22 11:00:31;;;;;;;2.60;0.80;;;;;;;9.91;100.00;100871.44;5011048;28;20159;-75
2021/03/22 11:03:36;;;;;;;1.70;1.05;;;;;;;9.95;100.00;100871.31;5010942;28;20056;-75
2021/03/22 11:06:41;;;;;;;3.78;1.05;;;;;;;10.02;100.00;100871.09;5011043;28;20073;-76
2021/03/22 11:09:56;;;;;;;2.53;1.20;;;;;;;10.26;100.00;100869.53;5010188;28;20432;-76
2021/03/22 11:13:01;;;;;;;11.02;1.55;;;;;;;10.25;100.00;100861.59;5011201;28;20064;-75
2021/03/22 11:16:06;;;;;;;1.92;0.60;;;;;;;10.32;100.00;100861.38;5011159;28;20061;-75
2021/03/22 11:19:40;;;;;;;1.65;0.65;;;;;;;10.43;100.00;100873.72;5010999;28;20065;-74
2021/03/22 11:22:46;;;;;;;7.47;1.23;;;;;;;10.30;100.00;100872.19;5009272;28;20053;-75
2021/03/22 11:25:52;;;;;;;2.70;1.70;;;;;;;10.34;100.00;100875.63;5010423;28;20053;-76
2021/03/22 11:29:21;;;;;;;1.45;0.75;;;;;;;10.38;100.00;100877.06;5010716;28;20542;-75
2021/03/22 11:32:31;;;;;;;3.88;0.85;;;;;;;10.30;100.00;100878.53;4999697;28;20061;-75
2021/03/22 11:35:35;;;;;;;1.17;0.95;;;;;;;10.48;100.00;100869.56;5010673;28;20057;-74
2021/03/22 11:39:18;;;;;;;5.40;1.05;;;;;;;10.59;100.00;100867.97;5010525;28;20064;-75
2021/03/22 11:42:36;;;;;;;1.20;0.77;;;;;;;10.88;100.00;100858.59;5010020;28;20061;-74
2021/03/22 11:45:45;;;;;;;2.67;1.20;;;;;;;10.80;100.00;100851.72;5011339;28;20421;-75
2021/03/22 11:48:49;;;;;;;4.18;0.95;;;;;;;10.65;100.00;100857.78;5010169;28;20077;-76
2021/03/22 11:51:53;;;;;;;2.90;1.65;;;;;;;10.31;100.00;100854.25;5009789;28;20388;-75
2021/03/22 11:55:27;;;;;;;0.77;0.50;;;;;;;9.93;100.00;100855.06;5010265;28;20061;-75
2021/03/22 11:58:33;;;;;;;2.15;0.82;;;;;;;9.80;100.00;100859.88;5009348;28;20080;-75
2021/03/22 12:01:37;;;;;;;5.13;0.73;;;;;;;9.85;100.00;100855.75;5011207;28;20068;-74
2021/03/22 12:04:59;;;;;;;3.00;1.25;;;;;;;9.82;100.00;100854.63;5010265;28;20065;-75
2021/03/22 12:08:40;;;;;;;2.78;1.30;;;;;;;9.89;100.00;100846.06;4996502;28;20069;-74
2021/03/22 12:11:43;;;;;;;1.83;0.75;;;;;;;9.98;100.00;100839.03;5001983;28;20523;-76
2021/03/22 12:14:46;;;;;;;2.80;1.35;;;;;;;10.03;100.00;100833.66;5010094;28;20065;-75
2021/03/22 12:17:54;;;;;;;6.75;0.93;;;;;;;10.02;100.00;100829.34;5010440;28;20424;-74
2021/03/22 12:20:59;;;;;;;9.82;1.02;;;;;;;10.12;100.00;100830.22;5010482;28;20061;-75
2021/03/22 12:24:04;;;;;;;2.30;1.38;;;;;;;10.05;100.00;100839.56;5014015;28;21030;-74
2021/03/22 12:27:13;;;;;;;5.55;1.02;;;;;;;10.18;100.00;100834.78;5013814;28;20424;-77
2021/03/22 12:30:17;;;;;;;2.85;0.68;;;;;;;10.32;100.00;100834.31;5014260;28;20069;-75
2021/03/22 12:33:28;;;;;;;3.17;1.08;;;;;;;10.27;100.00;100834.88;5014386;28;20069;-75
2021/03/22 12:36:32;;;;;;;2.05;1.15;;;;;;;10.22;100.00;100827.09;5014192;28;20057;-75
2021/03/22 12:39:36;;;;;;;3.97;1.52;;;;;;;10.32;100.00;100823.16;5014217;28;20057;-75
2021/03/22 12:42:43;;;;;;;3.83;1.80;;;;;;;10.43;100.00;100829.16;5013435;28;20065;-75
2021/03/22 12:45:46;;;;;;;2.13;0.98;;;;;;;10.43;100.00;100831.94;5013965;28;20076;-75
2021/03/22 12:48:50;;;;;;;2.03;0.77;;;;;;;10.30;100.00;100830.41;5013526;28;20061;-75
2021/03/22 12:51:53;;;;;;;3.28;1.20;;;;;;;10.11;100.00;100835.03;5013525;28;20056;-76
2021/03/22 12:54:56;;;;;;;3.05;1.50;;;;;;;9.84;100.00;100826.34;5012536;28;20053;-77
2021/03/22 12:58:04;;;;;;;5.18;1.48;;;;;;;9.76;100.00;100830.59;5012436;28;20061;-75
2021/03/22 13:01:10;;;;;;;3.47;0.88;;;;;;;9.84;100.00;100823.56;5013934;28;20061;-75
2021/03/22 13:04:13;;;;;;;4.80;1.08;;;;;;;9.67;100.00;100825.72;5013606;28;20061;-75
2021/03/22 13:07:17;;;;;;;2.15;1.08;;;;;;;9.78;100.00;100815.03;5013272;28;20057;-75
2021/03/22 13:10:23;;;;;;;4.03;1.73;;;;;;;9.87;100.00;100806.00;5012285;28;20530;-76
2021/03/22 13:13:27;;;;;;;3.10;1.67;;;;;;;10.05;100.00;100808.94;5012905;28;20060;-76
2021/03/22 13:16:30;;;;;;;4.68;2.05;;;;;;;10.44;100.00;100791.72;5013529;28;20061;-77
2021/03/22 13:19:33;;;;;;;3.80;1.40;;;;;;;10.97;100.00;100786.19;5013160;28;20065;-75
2021/03/22 13:22:37;;;;;;;8.35;1.67;;;;;;;11.12;100.00;100795.56;5013041;28;20068;-76
2021/03/22 13:25:41;;;;;;;4.88;1.45;;;;;;;11.14;100.00;100787.53;5012948;28;20065;-77
2021/03/22 13:28:51;;;;;;;5.82;1.75;;;;;;;11.29;100.00;100780.19;5012659;28;20081;-77
2021/03/22 13:31:54;;;;;;;4.80;1.38;;;;;;;11.41;100.00;100790.47;5013169;28;20071;-76
2021/03/22 13:34:58;;;;;;;6.43;1.77;;;;;;;11.82;100.00;100797.63;5006653;28;20416;-75
2021/03/22 13:38:02;;;;;;;3.13;1.50;;;;;;;12.12;100.00;100797.53;5011552;28;20061;-75
2021/03/22 13:41:25;;;;;;;6.72;1.55;;;;;;;12.28;100.00;100792.88;5011749;28;20535;-75
2021/03/22 13:44:28;;;;;;;2.85;1.58;;;;;;;12.46;100.00;100787.28;5009615;28;20416;-76
2021/03/22 13:47:32;;;;;;;3.03;1.63;;;;;;;12.44;100.00;100782.19;5013017;28;20065;-75
2021/03/22 13:50:35;;;;;;;2.58;1.90;;;;;;;12.49;100.00;100783.56;5012400;28;20053;-75
2021/03/22 13:53:39;;;;;;;3.25;1.58;;;;;;;12.51;100.00;100776.28;5012713;28;20503;-76
2021/03/22 13:56:43;;;;;;;6.32;2.13;;;;;;;12.32;100.00;100783.13;5011793;28;20065;-75
2021/03/22 13:59:47;;;;;;;2.60;1.02;;;;;;;11.63;100.00;100779.22;5011893;28;20065;-75
2021/03/22 14:02:51;;;;;;;7.28;1.38;;;;;;;11.02;100.00;100782.84;5012140;28;20069;-76
2021/03/22 14:05:55;;;;;;;2.40;1.20;;;;;;;10.54;100.00;100773.84;5012233;28;20072;-76
2021/03/22 14:08:58;;;;;;;3.70;1.60;;;;;;;10.46;100.00;100771.78;5012269;28;20064;-75
2021/03/22 14:12:02;;;;;;;9.07;2.53;;;;;;;10.77;100.00;100763.47;5012176;28;20106;-76
2021/03/22 14:15:10;;;;;;;3.35;1.33;;;;;;;11.12;100.00;100754.53;5011998;28;20384;-76
2021/03/22 14:18:17;;;;;;;2.80;1.23;;;;;;;11.50;100.00;100759.81;5012178;28;20069;-75
2021/03/22 14:21:21;;;;;;;3.58;1.17;;;;;;;11.45;100.00;100757.63;5010793;28;20061;-76
2021/03/22 14:24:24;;;;;;;2.72;2.22;;;;;;;11.26;100.00;100756.00;5011026;28;20053;-76
2021/03/22 14:27:28;;;;;;;1.67;0.93;;;;;;;10.94;100.00;100753.66;5011816;28;20053;-80
2021/03/22 14:30:35;;;;;;;1.23;1.10;;;;;;;10.58;100.00;100757.78;5012493;28;20064;-75
2021/03/22 14:33:39;;;;;;;2.83;1.50;;;;;;;10.32;100.00;100745.22;5011597;28;20069;-77
2021/03/22 14:36:42;;;;;;;3.65;1.67;;;;;;;10.48;100.00;100745.00;5011146;28;20077;-76
2021/03/22 14:39:47;;;;;;;5.18;2.72;;;;;;;10.78;100.00;100745.53;5011289;28;20065;-77
2021/03/22 14:42:51;;;;;;;2.00;1.00;;;;;;;11.19;100.00;100745.13;5011220;28;20061;-75